createdAt,value
2022-09-24T00:01:26.035Z,73.55
2022-09-24T00:02:58.215Z,73.53
2022-09-24T00:04:30.613Z,73.66
2022-09-24T00:06:03.608Z,73.95
2022-09-24T00:07:35.585Z,73.60
2022-09-24T00:10:47.441Z,73.79
2022-09-24T00:12:19.401Z,73.67
2022-09-24T00:13:52.447Z,73.58
2022-09-24T00:15:24.368Z,73.77
2022-09-24T00:16:56.305Z,73.51
2022-09-24T00:18:29.452Z,73.36
2022-09-24T00:20:01.617Z,73.23
2022-09-24T00:21:35.409Z,73.66
2022-09-24T00:23:09.029Z,73.74
2022-09-24T00:24:59.933Z,73.85
2022-09-24T00:26:50.229Z,73.63
2022-09-24T00:28:22.343Z,73.55
2022-09-24T00:29:54.370Z,73.55
2022-09-24T00:31:27.036Z,73.42
2022-09-24T00:32:59.043Z,73.41
2022-09-24T00:34:31.531Z,73.30
2022-09-24T00:36:05.703Z,73.57
2022-09-24T00:37:37.711Z,73.42
2022-09-24T00:39:09.839Z,73.32
2022-09-24T00:40:41.967Z,73.42
2022-09-24T00:42:14.388Z,73.55
2022-09-24T00:43:47.628Z,73.99
2022-09-24T00:45:19.727Z,74.02
2022-09-24T00:46:51.819Z,73.96
2022-09-24T00:48:24.363Z,73.91
2022-09-24T00:50:09.887Z,73.96
2022-09-24T00:51:43.523Z,73.68
2022-09-24T00:53:18.049Z,73.53
2022-09-24T00:54:50.440Z,73.67
2022-09-24T00:56:23.391Z,73.61
2022-09-24T00:57:59.894Z,73.40
2022-09-24T00:59:31.960Z,73.75
2022-09-24T01:01:08.164Z,73.96
2022-09-24T01:02:42.785Z,74.00
2022-09-24T01:04:17.900Z,73.95
2022-09-24T01:05:50.204Z,73.55
2022-09-24T01:07:22.356Z,73.55
2022-09-24T01:08:56.351Z,73.44
2022-09-24T01:10:48.230Z,73.71
2022-09-24T01:12:40.191Z,73.95
2022-09-24T01:44:07.390Z,73.64
2022-09-24T01:45:40.297Z,73.33
2022-09-24T01:47:19.113Z,73.39
2022-09-24T01:48:51.359Z,73.57
2022-09-24T01:50:23.899Z,73.90
2022-09-24T01:51:58.595Z,74.08
2022-09-24T01:53:33.890Z,74.25
2022-09-24T01:55:06.892Z,74.53
2022-09-24T01:57:15.188Z,74.35
2022-09-24T01:58:52.038Z,74.41
2022-09-24T02:00:24.239Z,74.46
2022-09-24T02:02:06.030Z,74.32
2022-09-24T02:03:43.508Z,74.27
2022-09-24T02:05:39.258Z,74.19
2022-09-24T02:07:16.776Z,74.29
2022-09-24T02:08:49.366Z,74.46
2022-09-24T02:10:21.446Z,74.33
2022-09-24T02:11:54.413Z,74.07
2022-09-24T02:13:29.960Z,74.14
2022-09-24T02:15:26.781Z,74.01
2022-09-24T02:17:04.404Z,74.25
2022-09-24T02:18:40.319Z,74.26
2022-09-24T02:20:15.685Z,74.58
2022-09-24T02:21:47.768Z,74.47
2022-09-24T02:23:20.712Z,74.27
2022-09-24T02:24:58.351Z,74.18
2022-09-24T02:26:30.570Z,73.94
2022-09-24T02:28:03.512Z,74.24
2022-09-24T02:29:36.146Z,74.37
2022-09-24T02:31:16.319Z,74.01
2022-09-24T02:32:49.818Z,73.98
2022-09-24T02:34:23.775Z,74.29
2022-09-24T02:35:55.820Z,74.53
2022-09-24T02:37:27.872Z,74.64
2022-09-24T02:38:59.866Z,74.52
2022-09-24T02:40:31.858Z,74.48
2022-09-24T02:42:08.014Z,74.40
2022-09-24T02:43:41.413Z,74.31
2022-09-24T02:45:13.468Z,74.39
2022-09-24T02:46:46.943Z,74.76
2022-09-24T02:48:18.915Z,74.59
2022-09-24T02:49:50.899Z,74.54
2022-09-24T02:51:22.868Z,74.72
2022-09-24T02:52:55.241Z,74.56
2022-09-24T02:54:27.247Z,74.52
2022-09-24T02:56:02.283Z,74.64
2022-09-24T02:57:34.784Z,74.43
2022-09-24T02:59:08.045Z,74.45
2022-09-24T03:00:40.075Z,74.50
2022-09-24T03:02:12.584Z,74.47
2022-09-24T03:03:44.643Z,74.82
2022-09-24T03:05:18.614Z,74.91
2022-09-24T03:06:50.650Z,74.89
2022-09-24T03:08:29.789Z,74.97
2022-09-24T03:10:01.833Z,74.83
2022-09-24T03:11:36.057Z,74.77
2022-09-24T03:13:09.870Z,74.50
2022-09-24T03:14:41.839Z,74.46
2022-09-24T03:16:13.904Z,74.62
2022-09-24T03:17:45.961Z,74.57
2022-09-24T03:19:17.962Z,74.75
2022-09-24T03:21:04.063Z,75.10
2022-09-24T03:22:40.137Z,75.06
2022-09-24T03:24:12.120Z,74.93
2022-09-24T03:25:44.103Z,74.63
2022-09-24T03:27:16.565Z,74.17
2022-09-24T03:28:48.617Z,74.03
2022-09-24T03:30:39.513Z,73.90
2022-09-24T03:33:52.252Z,73.94
2022-09-24T03:35:24.556Z,74.09
2022-09-24T03:36:56.605Z,74.03
2022-09-24T03:38:29.754Z,73.93
2022-09-24T03:40:01.937Z,74.53
2022-09-24T03:41:33.957Z,74.48
2022-09-24T03:43:05.996Z,74.78
2022-09-24T03:44:38.015Z,74.68
2022-09-24T03:46:11.387Z,74.37
2022-09-24T03:47:43.822Z,74.43
2022-09-24T03:49:15.977Z,74.24
2022-09-24T03:50:51.046Z,74.25
2022-09-24T03:52:23.325Z,74.18
2022-09-24T03:53:55.317Z,74.11
2022-09-24T03:55:28.314Z,74.18
2022-09-24T03:57:00.377Z,74.53
2022-09-24T03:58:38.138Z,74.59
2022-09-24T04:00:11.078Z,74.11
2022-09-24T04:01:43.136Z,74.32
2022-09-24T04:03:15.306Z,74.17
2022-09-24T04:04:47.342Z,74.36
2022-09-24T04:06:24.819Z,74.45
2022-09-24T04:07:59.134Z,74.99
2022-09-24T04:09:31.268Z,75.05
2022-09-24T04:11:03.437Z,75.12
2022-09-24T04:12:35.451Z,74.87
2022-09-24T04:14:07.617Z,75.16
2022-09-24T04:15:39.835Z,74.83
2022-09-24T04:17:11.875Z,75.05
2022-09-24T04:18:43.843Z,74.85
2022-09-24T04:20:15.891Z,74.91
2022-09-24T04:21:47.963Z,74.39
2022-09-24T04:23:20.088Z,74.50
2022-09-24T04:24:52.883Z,74.68
2022-09-24T04:26:24.928Z,74.67
2022-09-24T04:27:59.569Z,74.92
2022-09-24T04:29:31.561Z,74.66
2022-09-24T04:31:03.722Z,74.78
2022-09-24T04:32:35.799Z,74.73
2022-09-24T04:34:09.094Z,74.44
2022-09-24T04:35:41.105Z,74.66
2022-09-24T04:37:13.098Z,74.46
2022-09-24T04:38:47.014Z,74.62
2022-09-24T04:40:19.371Z,74.76
2022-09-24T04:41:51.396Z,74.85
2022-09-24T04:43:23.410Z,75.06
2022-09-24T04:44:56.311Z,75.22
2022-09-24T04:46:29.906Z,75.71
2022-09-24T04:48:01.986Z,76.00
2022-09-24T04:49:34.007Z,76.45
2022-09-24T04:51:10.776Z,76.14
2022-09-24T04:52:42.739Z,76.21
2022-09-24T04:54:14.821Z,76.16
2022-09-24T04:55:47.682Z,75.93
2022-09-24T04:57:19.685Z,76.14
2022-09-24T04:58:52.108Z,76.38
2022-09-24T05:00:25.059Z,76.13
2022-09-24T05:01:57.220Z,76.05
2022-09-24T05:03:29.291Z,76.06
2022-09-24T05:05:01.410Z,76.17
2022-09-24T05:06:36.672Z,75.93
2022-09-24T05:08:08.648Z,76.21
2022-09-24T05:09:40.780Z,76.18
2022-09-24T05:11:13.493Z,76.46
2022-09-24T05:12:45.500Z,76.50
2022-09-24T05:14:17.462Z,76.60
2022-09-24T05:15:49.530Z,76.41
2022-09-24T05:17:21.855Z,76.51
2022-09-24T05:18:55.231Z,76.39
2022-09-24T05:20:29.585Z,76.53
2022-09-24T05:22:01.694Z,76.58
2022-09-24T05:23:33.751Z,76.56
2022-09-24T05:25:06.285Z,76.71
2022-09-24T05:26:56.894Z,76.50
2022-09-24T05:28:28.982Z,76.57
2022-09-24T05:30:01.503Z,76.72
2022-09-24T05:31:33.762Z,76.99
2022-09-24T05:33:06.094Z,76.92
2022-09-24T05:34:38.646Z,77.07
2022-09-24T05:36:10.919Z,77.19
2022-09-24T05:37:43.208Z,77.38
2022-09-24T05:39:15.215Z,77.21
2022-09-24T05:40:50.061Z,77.24
2022-09-24T05:42:22.432Z,77.25
2022-09-24T05:43:55.468Z,77.14
2022-09-24T05:45:27.587Z,76.92
2022-09-24T05:47:00.137Z,76.62
2022-09-24T05:48:32.507Z,76.44
2022-09-24T05:50:05.146Z,76.19
2022-09-24T05:51:37.534Z,76.10
2022-09-24T05:53:09.921Z,75.89
2022-09-24T05:54:42.214Z,75.70
2022-09-24T05:56:17.937Z,75.85
2022-09-24T05:57:50.572Z,75.76
2022-09-24T05:59:22.707Z,75.53
2022-09-24T06:00:55.000Z,75.26
2022-09-24T06:02:27.058Z,75.05
2022-09-24T06:04:02.493Z,74.62
2022-09-24T06:05:36.805Z,74.37
2022-09-24T06:07:09.211Z,74.29
2022-09-24T06:08:41.566Z,74.13
2022-09-24T06:10:13.910Z,73.78
2022-09-24T06:11:47.012Z,73.68
2022-09-24T06:13:21.166Z,73.78
2022-09-24T06:14:56.235Z,73.37
2022-09-24T06:16:28.783Z,73.33
2022-09-24T06:18:01.097Z,73.23
2022-09-24T06:19:33.367Z,73.13
2022-09-24T06:21:10.736Z,73.24
2022-09-24T06:22:43.037Z,72.45
2022-09-24T06:24:15.592Z,71.54
2022-09-24T06:25:51.651Z,71.24
2022-09-24T06:27:23.824Z,70.12
2022-09-24T06:28:58.480Z,69.69
2022-09-24T06:30:41.886Z,68.96
2022-09-24T06:32:14.100Z,69.06
2022-09-24T06:33:46.616Z,68.12
2022-09-24T06:35:18.930Z,68.19
2022-09-24T06:36:55.550Z,67.54
2022-09-24T06:38:28.111Z,67.67
2022-09-24T06:40:00.822Z,67.64
2022-09-24T06:41:33.168Z,66.96
2022-09-24T06:43:09.729Z,67.03
2022-09-24T06:44:42.877Z,67.21
2022-09-24T06:46:16.110Z,67.40
2022-09-24T06:47:59.191Z,67.39
2022-09-24T06:49:34.255Z,67.72
2022-09-24T06:51:07.054Z,67.47
2022-09-24T06:52:39.475Z,67.50
2022-09-24T06:54:12.024Z,67.44
2022-09-24T06:55:47.616Z,66.77
2022-09-24T06:57:19.894Z,64.33
2022-09-24T06:58:52.331Z,63.50
2022-09-24T07:00:24.622Z,63.34
2022-09-24T07:01:57.079Z,63.43
2022-09-24T07:03:31.313Z,61.46
2022-09-24T07:05:03.783Z,62.01
2022-09-24T07:06:54.403Z,62.19
2022-09-24T07:08:26.608Z,62.27
2022-09-24T07:09:59.689Z,61.64
2022-09-24T07:11:32.503Z,60.77
2022-09-24T07:13:04.898Z,59.61
2022-09-24T07:14:37.190Z,59.57
2022-09-24T07:16:09.904Z,58.33
2022-09-24T07:17:42.175Z,57.92
2022-09-24T07:19:14.501Z,58.29
2022-09-24T07:20:55.530Z,58.07
2022-09-24T07:22:27.995Z,57.75
2022-09-24T07:24:00.301Z,57.28
2022-09-24T07:25:33.316Z,56.68
2022-09-24T07:27:06.510Z,55.11
2022-09-24T07:28:38.784Z,55.52
2022-09-24T07:30:11.494Z,55.66
2022-09-24T07:31:43.951Z,54.95
2022-09-24T07:33:16.743Z,55.67
2022-09-24T07:34:49.063Z,56.55
2022-09-24T07:36:21.462Z,55.58
2022-09-24T07:38:07.465Z,54.48
2022-09-24T07:39:39.899Z,55.20
2022-09-24T07:41:12.472Z,55.38
2022-09-24T07:42:48.907Z,54.30
2022-09-24T07:44:23.343Z,53.75
2022-09-24T07:45:56.345Z,52.90
2022-09-24T07:47:28.886Z,52.87
2022-09-24T07:49:01.265Z,53.38
2022-09-24T07:50:35.709Z,53.54
2022-09-24T07:52:11.027Z,51.48
2022-09-24T07:53:43.426Z,50.01
2022-09-24T07:55:15.849Z,50.71
2022-09-24T07:56:48.267Z,51.31
2022-09-24T07:58:20.849Z,50.54
2022-09-24T07:59:57.907Z,50.79
2022-09-24T08:01:31.957Z,50.03
2022-09-24T08:04:37.319Z,49.50
2022-09-24T08:06:09.568Z,48.62
2022-09-24T08:07:42.730Z,48.14
2022-09-24T08:09:17.321Z,48.29
2022-09-24T08:10:49.622Z,48.52
2022-09-24T08:12:21.773Z,48.05
2022-09-24T08:13:54.116Z,47.31
2022-09-24T08:15:26.468Z,45.34
2022-09-24T08:16:58.990Z,43.36
2022-09-24T08:18:32.837Z,44.28
2022-09-24T08:20:05.662Z,43.11
2022-09-24T08:21:39.543Z,43.01
2022-09-24T08:23:11.856Z,40.97
2022-09-24T08:24:44.166Z,41.44
2022-09-24T08:26:16.457Z,40.81
2022-09-24T08:27:48.664Z,41.33
2022-09-24T08:29:20.948Z,40.88
2022-09-24T08:30:53.337Z,40.40
2022-09-24T08:32:25.591Z,40.76
2022-09-24T08:33:58.176Z,40.73
2022-09-24T08:35:30.465Z,40.24
2022-09-24T08:37:02.915Z,40.49
2022-09-24T08:38:35.574Z,41.14
2022-09-24T08:40:14.043Z,41.18
2022-09-24T08:42:06.770Z,41.23
2022-09-24T08:44:03.925Z,41.11
2022-09-24T08:46:02.034Z,40.86
2022-09-24T08:47:37.363Z,40.44
2022-09-24T08:49:14.171Z,40.78
2022-09-24T08:50:53.607Z,39.02
2022-09-24T08:52:44.089Z,39.29
2022-09-24T08:54:16.705Z,37.38
2022-09-24T08:56:01.003Z,37.36
2022-09-24T08:57:39.125Z,37.26
2022-09-24T08:59:32.930Z,36.93
2022-09-24T09:01:11.122Z,37.66
2022-09-24T09:03:07.510Z,37.52
2022-09-24T09:05:00.935Z,38.17
2022-09-24T09:06:51.422Z,38.62
2022-09-24T09:10:39.334Z,37.72
2022-09-24T09:12:19.017Z,36.94
2022-09-24T09:14:19.174Z,35.41
2022-09-24T09:15:59.154Z,36.59
2022-09-24T09:17:53.498Z,36.51
2022-09-24T09:19:34.379Z,35.03
2022-09-24T09:21:18.456Z,35.03
2022-09-24T09:22:53.814Z,34.60
2022-09-24T09:24:40.694Z,36.07
2022-09-24T09:26:13.258Z,34.29
2022-09-24T09:27:46.697Z,35.51
2022-09-24T09:29:18.773Z,35.61
2022-09-24T09:30:57.538Z,33.87
2022-09-24T09:32:47.887Z,34.70
2022-09-24T09:34:57.258Z,34.80
2022-09-24T09:36:38.303Z,34.91
2022-09-24T09:38:20.214Z,35.42
2022-09-24T09:40:02.059Z,34.35
2022-09-24T09:41:44.908Z,35.12
2022-09-24T09:43:19.322Z,34.62
2022-09-24T09:44:51.641Z,34.84
2022-09-24T09:46:29.063Z,34.89
2022-09-24T09:48:03.727Z,33.90
2022-09-24T09:49:37.237Z,34.14
2022-09-24T09:51:21.394Z,35.25
2022-09-24T09:52:55.965Z,34.94
2022-09-24T09:54:38.562Z,34.01
2022-09-24T09:56:10.983Z,33.91
2022-09-24T09:57:43.301Z,32.96
2022-09-24T09:59:27.336Z,32.86
2022-09-24T10:01:13.555Z,33.83
2022-09-24T10:02:51.386Z,32.84
2022-09-24T10:04:29.718Z,32.41
2022-09-24T10:06:04.128Z,33.06
2022-09-24T10:07:45.422Z,32.83
2022-09-24T10:09:22.769Z,32.96
2022-09-24T10:11:04.548Z,32.38
2022-09-24T10:12:37.056Z,33.08
2022-09-24T10:14:14.396Z,33.61
2022-09-24T10:15:57.385Z,32.91
2022-09-24T10:17:35.809Z,32.43
2022-09-24T10:19:21.566Z,32.30
2022-09-24T10:20:55.005Z,31.98
2022-09-24T10:22:27.803Z,31.98
2022-09-24T10:24:02.580Z,31.35
2022-09-24T10:25:39.804Z,32.09
2022-09-24T10:27:25.163Z,32.76
2022-09-24T10:29:15.889Z,32.54
2022-09-24T10:31:04.688Z,32.35
2022-09-24T10:32:37.328Z,31.98
2022-09-24T10:34:30.286Z,30.63
2022-09-24T10:36:18.764Z,31.97
2022-09-24T10:37:58.207Z,30.86
2022-09-24T10:39:31.248Z,30.99
2022-09-24T10:41:26.440Z,31.29
2022-09-24T10:43:03.088Z,31.87
2022-09-24T10:44:38.548Z,33.08
2022-09-24T10:46:55.754Z,33.15
2022-09-24T10:48:44.929Z,33.19
2022-09-24T10:50:47.009Z,32.03
2022-09-24T10:52:40.517Z,33.02
2022-09-24T10:54:18.608Z,32.76
2022-09-24T10:56:02.367Z,32.72
2022-09-24T10:57:54.688Z,32.10
2022-09-24T10:59:42.764Z,31.18
2022-09-24T11:01:32.915Z,31.43
2022-09-24T11:03:37.165Z,31.63
2022-09-24T11:05:13.968Z,32.11
2022-09-24T11:07:22.607Z,31.23
2022-09-24T11:09:17.246Z,29.62
2022-09-24T11:10:52.443Z,31.04
2022-09-24T11:12:33.085Z,30.43
2022-09-24T11:14:23.964Z,30.54
2022-09-24T11:16:41.244Z,29.42
2022-09-24T11:18:40.368Z,30.50
2022-09-24T11:20:20.048Z,29.22
2022-09-24T11:22:27.436Z,30.00
2022-09-24T11:24:20.287Z,29.27
2022-09-24T11:26:15.888Z,29.44
2022-09-24T11:28:21.964Z,28.93
2022-09-24T11:30:14.137Z,28.60
2022-09-24T11:32:10.767Z,29.43
2022-09-24T11:34:27.885Z,29.21
2022-09-24T11:37:39.963Z,28.72
2022-09-24T11:39:33.568Z,29.17
2022-09-24T11:41:24.126Z,28.23
2022-09-24T11:43:34.608Z,28.97
2022-09-24T11:45:19.170Z,28.58
2022-09-24T11:47:07.571Z,28.32
2022-09-24T11:48:54.768Z,27.92
2022-09-24T11:50:47.911Z,28.06
2022-09-24T11:52:35.324Z,29.15
2022-09-24T11:54:24.763Z,28.71
2022-09-24T11:56:01.493Z,28.95
2022-09-24T11:57:41.180Z,29.43
2022-09-24T11:59:49.660Z,31.38
2022-09-24T12:01:24.787Z,28.54
2022-09-24T12:03:06.150Z,28.79
2022-09-24T12:05:04.045Z,29.19
2022-09-24T12:06:53.004Z,29.03
2022-09-24T12:08:49.881Z,28.43
2022-09-24T12:10:33.565Z,28.39
2022-09-24T12:12:07.832Z,28.64
2022-09-24T12:13:45.647Z,29.74
2022-09-24T12:15:25.174Z,29.87
2022-09-24T12:17:15.328Z,29.38
2022-09-24T12:19:23.246Z,27.89
2022-09-24T12:21:02.376Z,29.52
2022-09-24T12:22:36.684Z,29.66
2022-09-24T12:24:35.887Z,28.88
2022-09-24T12:26:09.006Z,29.58
2022-09-24T12:27:47.088Z,28.75
2022-09-24T12:30:11.985Z,30.05
2022-09-24T12:32:17.426Z,29.34
2022-09-24T12:33:58.420Z,29.22
2022-09-24T12:36:06.625Z,31.56
2022-09-24T12:37:42.540Z,30.07
2022-09-24T12:39:18.623Z,30.62
2022-09-24T12:40:59.399Z,30.78
2022-09-24T12:42:39.831Z,30.87
2022-09-24T12:44:31.825Z,30.21
2022-09-24T12:46:05.523Z,29.42
2022-09-24T12:47:46.467Z,29.26
2022-09-24T12:49:27.589Z,30.82
2022-09-24T12:51:01.248Z,30.58
2022-09-24T12:52:43.788Z,31.43
2022-09-24T12:54:36.566Z,31.05
2022-09-24T12:56:10.335Z,31.50
2022-09-24T12:57:43.772Z,30.93
2022-09-24T12:59:27.004Z,31.36
2022-09-24T13:01:13.875Z,31.27
2022-09-24T13:02:48.011Z,31.35
2022-09-24T13:04:20.520Z,31.05
2022-09-24T13:05:52.907Z,31.15
2022-09-24T13:07:34.030Z,30.27
2022-09-24T13:09:35.150Z,29.12
2022-09-24T13:11:26.381Z,29.57
2022-09-24T13:13:00.404Z,30.93
2022-09-24T13:14:36.881Z,30.08
2022-09-24T13:16:20.479Z,30.31
2022-09-24T13:18:00.583Z,30.77
2022-09-24T13:19:41.349Z,29.98
2022-09-24T13:21:22.361Z,30.17
2022-09-24T13:23:15.202Z,29.54
2022-09-24T13:24:53.258Z,30.54
2022-09-24T13:26:25.667Z,30.47
2022-09-24T13:28:02.801Z,30.98
2022-09-24T13:29:40.103Z,30.67
2022-09-24T13:31:19.820Z,30.66
2022-09-24T13:32:59.217Z,30.36
2022-09-24T13:34:32.527Z,30.42
2022-09-24T13:36:13.964Z,30.45
2022-09-24T13:37:51.795Z,30.32
2022-09-24T13:41:29.288Z,30.93
2022-09-24T13:43:14.777Z,30.98
2022-09-24T13:44:54.621Z,29.09
2022-09-24T13:46:27.561Z,30.57
2022-09-24T13:48:04.229Z,30.85
2022-09-24T13:49:39.035Z,30.86
2022-09-24T13:51:15.486Z,30.91
2022-09-24T13:53:00.222Z,31.55
2022-09-24T13:54:35.284Z,31.20
2022-09-24T13:56:16.131Z,31.20
2022-09-24T13:57:50.007Z,30.65
2022-09-24T13:59:22.344Z,30.67
2022-09-24T14:00:55.325Z,31.52
2022-09-24T14:02:29.120Z,31.46
2022-09-24T14:04:07.087Z,31.32
2022-09-24T14:05:39.748Z,31.25
2022-09-24T14:07:13.026Z,31.12
2022-09-24T14:08:46.332Z,30.94
2022-09-24T14:10:18.604Z,31.24
2022-09-24T14:11:56.689Z,31.36
2022-09-24T14:13:28.926Z,31.31
2022-09-24T14:15:05.048Z,31.62
2022-09-24T14:16:37.248Z,31.53
2022-09-24T14:18:15.328Z,31.48
2022-09-24T14:19:48.866Z,29.88
2022-09-24T14:21:25.384Z,30.70
2022-09-24T14:22:57.816Z,30.51
2022-09-24T14:24:40.415Z,31.01
2022-09-24T14:26:27.245Z,30.65
2022-09-24T14:28:01.714Z,30.62
2022-09-24T14:30:07.909Z,30.10
2022-09-24T14:31:50.552Z,31.02
2022-09-24T14:33:29.063Z,30.78
2022-09-24T14:35:17.602Z,31.45
2022-09-24T14:36:51.533Z,31.09
2022-09-24T14:38:29.778Z,30.73
2022-09-24T14:40:06.897Z,31.56
2022-09-24T14:41:39.222Z,31.83
2022-09-24T14:43:17.380Z,32.14
2022-09-24T14:44:49.908Z,33.09
2022-09-24T14:46:49.197Z,33.26
2022-09-24T14:48:29.738Z,33.56
2022-09-24T14:50:06.550Z,33.73
2022-09-24T14:51:38.816Z,33.71
2022-09-24T14:53:21.571Z,34.47
2022-09-24T14:55:15.827Z,35.16
2022-09-24T14:56:48.019Z,35.13
2022-09-24T14:58:38.453Z,35.34
2022-09-24T15:00:25.703Z,35.65
2022-09-24T15:02:23.886Z,35.99
2022-09-24T15:03:59.224Z,36.53
2022-09-24T15:05:31.995Z,36.28
2022-09-24T15:07:04.625Z,37.01
2022-09-24T15:08:37.266Z,37.48
2022-09-24T15:10:24.530Z,38.73
2022-09-24T15:12:08.838Z,39.29
2022-09-24T15:13:40.895Z,39.16
2022-09-24T15:15:17.288Z,39.68
2022-09-24T15:16:49.374Z,39.71
2022-09-24T15:18:22.624Z,39.95
2022-09-24T15:19:56.735Z,40.96
2022-09-24T15:21:30.535Z,40.61
2022-09-24T15:23:02.786Z,40.52
2022-09-24T15:24:35.220Z,40.71
2022-09-24T15:26:07.465Z,40.55
2022-09-24T15:29:25.443Z,41.08
2022-09-24T15:30:58.863Z,41.30
2022-09-24T15:32:34.197Z,41.54
2022-09-24T15:34:06.588Z,42.00
2022-09-24T15:35:41.004Z,42.76
2022-09-24T15:37:15.905Z,42.77
2022-09-24T15:38:49.681Z,43.48
2022-09-24T15:40:24.232Z,43.58
2022-09-24T15:41:56.621Z,43.67
2022-09-24T15:43:29.931Z,44.32
2022-09-24T15:45:02.017Z,44.51
2022-09-24T15:46:34.810Z,44.13
2022-09-24T15:48:07.762Z,44.36
2022-09-24T15:49:40.336Z,44.56
2022-09-24T15:51:15.588Z,44.33
2022-09-24T15:52:59.649Z,45.39
2022-09-24T15:54:31.714Z,45.40
2022-09-24T15:56:04.703Z,45.49
2022-09-24T15:57:37.267Z,45.51
2022-09-24T15:59:16.631Z,46.37
2022-09-24T16:00:49.293Z,46.57
2022-09-24T16:02:32.990Z,46.93
2022-09-24T16:04:05.290Z,47.31
2022-09-24T16:05:37.574Z,48.11
2022-09-24T16:07:09.969Z,48.42
2022-09-24T16:08:42.943Z,48.93
2022-09-24T16:10:16.086Z,49.11
2022-09-24T16:11:48.367Z,48.75
2022-09-24T16:13:23.641Z,49.57
2022-09-24T16:14:59.462Z,48.93
2022-09-24T16:16:31.872Z,49.61
2022-09-24T16:18:04.878Z,50.05
2022-09-24T16:19:37.323Z,50.32
2022-09-24T16:21:09.773Z,49.16
2022-09-24T16:22:42.052Z,48.81
2022-09-24T16:24:14.264Z,48.20
2022-09-24T16:25:57.411Z,48.38
2022-09-24T16:27:30.296Z,47.91
2022-09-24T16:29:04.050Z,47.43
2022-09-24T16:30:38.693Z,48.47
2022-09-24T16:32:11.714Z,47.41
2022-09-24T16:33:43.983Z,46.86
2022-09-24T16:35:16.764Z,47.46
2022-09-24T16:36:51.684Z,47.21
2022-09-24T16:38:23.834Z,48.05
2022-09-24T16:39:56.466Z,50.07
2022-09-24T16:41:34.722Z,52.05
2022-09-24T16:44:39.874Z,54.23
2022-09-24T16:46:16.304Z,54.78
2022-09-24T16:47:52.074Z,54.62
2022-09-24T16:49:24.528Z,54.73
2022-09-24T16:51:03.871Z,53.85
2022-09-24T16:52:36.084Z,53.06
2022-09-24T16:54:08.619Z,54.12
2022-09-24T16:55:40.872Z,53.88
2022-09-24T16:57:13.665Z,54.80
2022-09-24T16:58:47.541Z,55.41
2022-09-24T17:00:20.423Z,55.47
2022-09-24T17:01:54.510Z,56.18
2022-09-24T17:03:26.969Z,55.94
2022-09-24T17:05:01.502Z,55.87
2022-09-24T17:06:34.667Z,56.11
2022-09-24T17:08:06.996Z,57.37
2022-09-24T17:09:58.227Z,58.01
2022-09-24T17:11:30.775Z,58.62
2022-09-24T17:13:03.072Z,59.36
2022-09-24T17:14:39.905Z,60.14
2022-09-24T17:16:12.168Z,60.14
2022-09-24T17:17:49.857Z,60.37
2022-09-24T17:19:22.649Z,59.58
2022-09-24T17:21:08.092Z,59.16
2022-09-24T17:22:40.803Z,60.32
2022-09-24T17:24:17.872Z,60.39
2022-09-24T17:26:04.908Z,60.25
2022-09-24T17:27:37.252Z,59.99
2022-09-24T17:29:10.022Z,60.04
2022-09-24T17:30:42.370Z,60.46
2022-09-24T17:32:14.583Z,59.97
2022-09-24T17:33:48.292Z,60.74
2022-09-24T17:35:21.232Z,60.56
2022-09-24T17:36:53.760Z,60.85
2022-09-24T17:38:26.054Z,60.59
2022-09-24T17:39:58.192Z,60.12
2022-09-24T17:41:33.660Z,60.20
2022-09-24T17:43:08.001Z,60.27
2022-09-24T17:44:40.388Z,60.30
2022-09-24T17:46:15.096Z,60.31
2022-09-24T17:48:00.889Z,60.87
2022-09-24T17:49:33.832Z,60.78
2022-09-24T17:51:08.490Z,61.53
2022-09-24T17:52:40.699Z,61.79
2022-09-24T17:54:14.779Z,61.54
2022-09-24T17:55:51.702Z,61.80
2022-09-24T17:59:07.958Z,62.50
2022-09-24T18:01:10.453Z,62.65
2022-09-24T18:02:42.869Z,63.03
2022-09-24T18:04:17.934Z,62.91
2022-09-24T18:05:50.250Z,63.03
2022-09-24T18:07:23.546Z,63.52
2022-09-24T18:08:55.861Z,63.05
2022-09-24T18:10:29.468Z,63.23
2022-09-24T18:12:02.935Z,63.26
2022-09-24T18:13:35.379Z,63.15
2022-09-24T18:15:08.376Z,63.79
2022-09-24T18:16:40.939Z,63.95
2022-09-24T18:18:13.345Z,64.29
2022-09-24T18:19:45.635Z,64.51
2022-09-24T18:21:20.470Z,64.54
2022-09-24T18:22:52.928Z,64.53
2022-09-24T18:24:25.258Z,64.35
2022-09-24T18:26:11.812Z,64.54
2022-09-24T18:27:46.908Z,64.59
2022-09-24T18:29:19.807Z,64.84
2022-09-24T18:31:06.847Z,64.59
2022-09-24T18:32:40.587Z,65.02
2022-09-24T18:34:15.122Z,64.59
2022-09-24T18:35:47.331Z,64.62
2022-09-24T18:37:19.612Z,64.69
2022-09-24T18:38:52.317Z,65.34
2022-09-24T18:40:24.713Z,65.59
2022-09-24T18:41:57.050Z,66.01
2022-09-24T18:43:31.739Z,65.91
2022-09-24T18:45:05.023Z,66.32
2022-09-24T18:46:38.600Z,66.07
2022-09-24T18:48:10.745Z,66.03
2022-09-24T18:49:43.655Z,66.10
2022-09-24T18:51:35.770Z,65.92
2022-09-24T18:53:07.955Z,66.24
2022-09-24T18:54:40.291Z,66.33
2022-09-24T18:56:12.767Z,66.40
2022-09-24T18:57:45.066Z,66.27
2022-09-24T18:59:19.300Z,66.71
2022-09-24T19:00:51.923Z,66.75
2022-09-24T19:02:25.718Z,67.03
2022-09-24T19:04:01.537Z,67.40
2022-09-24T19:05:35.390Z,67.71
2022-09-24T19:07:08.933Z,68.06
2022-09-24T19:08:41.283Z,67.60
2022-09-24T19:10:13.625Z,67.79
2022-09-24T19:11:46.787Z,67.77
2022-09-24T19:13:23.928Z,67.90
2022-09-24T19:14:59.093Z,68.03
2022-09-24T19:16:34.193Z,68.24
2022-09-24T19:18:10.776Z,67.99
2022-09-24T19:19:50.018Z,68.18
2022-09-24T19:21:24.693Z,68.39
2022-09-24T19:23:00.630Z,68.29
2022-09-24T19:24:32.824Z,68.50
2022-09-24T19:26:06.710Z,68.42
2022-09-24T19:27:40.635Z,68.55
2022-09-24T19:29:13.188Z,68.79
2022-09-24T19:30:48.208Z,68.82
2022-09-24T19:32:20.671Z,68.91
2022-09-24T19:33:53.902Z,69.10
2022-09-24T19:37:05.900Z,69.13
2022-09-24T19:38:38.581Z,69.03
2022-09-24T19:40:11.382Z,68.94
2022-09-24T19:41:44.354Z,69.19
2022-09-24T19:43:16.739Z,69.19
2022-09-24T19:44:48.815Z,69.49
2022-09-24T19:46:24.553Z,69.19
2022-09-24T19:47:56.963Z,69.28
2022-09-24T19:49:29.765Z,69.17
2022-09-24T19:51:04.785Z,69.29
2022-09-24T19:52:37.082Z,69.16
2022-09-24T19:54:10.399Z,69.42
2022-09-24T19:55:45.079Z,69.61
2022-09-24T19:57:17.529Z,69.38
2022-09-24T19:58:53.855Z,69.60
2022-09-24T20:00:25.862Z,69.63
2022-09-24T20:01:58.119Z,69.81
2022-09-24T20:03:36.552Z,69.68
2022-09-24T20:05:09.220Z,69.79
2022-09-24T20:06:41.494Z,69.88
2022-09-24T20:08:15.140Z,70.18
2022-09-24T20:09:47.573Z,69.78
2022-09-24T20:11:22.256Z,69.96
2022-09-24T20:12:54.922Z,70.02
2022-09-24T20:14:30.220Z,69.72
2022-09-24T20:16:06.861Z,69.92
2022-09-24T20:17:39.258Z,69.86
2022-09-24T20:19:15.465Z,69.72
2022-09-24T20:20:47.693Z,69.69
2022-09-24T20:22:19.998Z,69.70
2022-09-24T20:23:54.773Z,69.56
2022-09-24T20:25:45.654Z,69.38
2022-09-24T20:27:37.094Z,69.70
2022-09-24T20:29:10.347Z,69.47
2022-09-24T20:30:45.935Z,69.63
2022-09-24T20:32:18.287Z,69.69
2022-09-24T20:33:50.712Z,69.77
2022-09-24T20:35:22.701Z,69.92
2022-09-24T20:36:55.518Z,69.97
2022-09-24T20:38:29.555Z,70.02
2022-09-24T20:40:01.784Z,70.33
2022-09-24T20:41:36.592Z,70.43
2022-09-24T20:43:09.415Z,70.52
2022-09-24T20:44:41.423Z,71.00
2022-09-24T20:46:22.207Z,70.66
2022-09-24T20:47:57.367Z,70.50
2022-09-24T20:49:30.224Z,70.61
2022-09-24T20:51:10.686Z,70.58
2022-09-24T20:52:43.047Z,70.29
2022-09-24T20:54:15.106Z,70.47
2022-09-24T20:55:47.194Z,70.81
2022-09-24T20:57:19.256Z,70.94
2022-09-24T20:58:53.517Z,70.87
2022-09-24T21:00:32.696Z,71.01
2022-09-24T21:02:05.003Z,71.02
2022-09-24T21:03:44.330Z,71.26
2022-09-24T21:05:17.488Z,71.22
2022-09-24T21:06:50.145Z,71.30
2022-09-24T21:08:22.176Z,71.51
2022-09-24T21:09:54.215Z,71.34
2022-09-24T21:11:29.764Z,71.50
2022-09-24T21:13:01.822Z,71.67
2022-09-24T21:14:36.240Z,71.75
2022-09-24T21:16:09.903Z,71.87
2022-09-24T21:17:59.367Z,71.77
2022-09-24T21:19:37.034Z,71.49
2022-09-24T21:21:15.725Z,71.53
2022-09-24T21:22:49.632Z,71.68
2022-09-24T21:24:26.395Z,71.71
2022-09-24T21:26:11.145Z,71.57
2022-09-24T21:27:43.621Z,71.71
2022-09-24T21:29:22.905Z,71.80
2022-09-24T21:31:03.787Z,71.98
2022-09-24T21:32:36.091Z,72.15
2022-09-24T21:34:08.823Z,71.94
2022-09-24T21:35:40.909Z,71.90